Time;durP1;ratioP1;P1;durP2;ratioP2;P2;SDS_P1;SDS_P2;PMS_P1;PMS_P2;Temp;Humidity;BMP_temperature;BMP_pressure;BME280_temperature;BME280_humidity;BME280_pressure;Samples;Min_cycle;Max_cycle;Signal;HPM_P1;HPM_P2
2021/12/28 00:01:48;;;;;;;0.98;0.47;;;;;;;;;;5045478;28;20024;-55
2021/12/28 00:04:14;;;;;;;3.35;1.42;;;;;;;;;;5031983;28;20107;-51
2021/12/28 00:06:40;;;;;;;2.22;0.95;;;;;;;;;;5031916;28;20471;-55
2021/12/28 00:09:08;;;;;;;7.18;1.30;;;;;;;;;;5031939;28;20049;-51
2021/12/28 00:11:34;;;;;;;1.73;0.82;;;;;;;;;;5032106;28;20068;-55
2021/12/28 00:14:01;;;;;;;2.85;1.48;;;;;;;;;;5032354;28;20065;-55
2021/12/28 00:19:17;;;;;;;3.08;1.08;;;;;;;;;;5039328;28;20080;-53
2021/12/28 00:21:43;;;;;;;4.30;1.15;;;;;;;;;;5031974;28;20053;-54
2021/12/28 00:24:09;;;;;;;4.97;1.17;;;;;;;;;;5032020;28;20029;-52
2021/12/28 00:26:35;;;;;;;2.88;1.08;;;;;;;;;;5032345;28;20034;-56
2021/12/28 00:29:01;;;;;;;2.63;0.75;;;;;;;;;;5031399;28;20034;-56
2021/12/28 00:31:27;;;;;;;9.20;1.58;;;;;;;;;;5031934;28;20327;-56
2021/12/28 00:33:54;;;;;;;3.45;0.90;;;;;;;;;;5031831;28;20025;-54
2021/12/28 00:36:20;;;;;;;4.93;1.23;;;;;;;;;;5031926;28;20053;-56
2021/12/28 00:38:46;;;;;;;1.75;0.80;;;;;;;;;;5031396;28;20021;-52
2021/12/28 00:41:12;;;;;;;7.18;1.30;;;;;;;;;;5031759;28;20063;-55
2021/12/28 00:43:39;;;;;;;2.95;1.02;;;;;;;;;;5031738;28;20449;-56
2021/12/28 00:46:06;;;;;;;8.82;1.50;;;;;;;;;;5048568;28;20540;-55
2021/12/28 00:48:32;;;;;;;2.10;1.10;;;;;;;;;;5049765;28;20033;-54
2021/12/28 00:50:58;;;;;;;4.85;1.13;;;;;;;;;;5053218;28;20478;-55
2021/12/28 00:53:24;;;;;;;1.58;0.98;;;;;;;;;;5055490;28;20064;-53
2021/12/28 00:55:50;;;;;;;5.47;0.80;;;;;;;;;;5055719;28;20104;-55
2021/12/28 00:58:16;;;;;;;2.70;1.08;;;;;;;;;;5054770;28;20402;-56
2021/12/28 01:00:44;;;;;;;6.70;2.15;;;;;;;;;;5055104;28;20037;-55
2021/12/28 01:03:10;;;;;;;6.93;1.20;;;;;;;;;;5037759;28;20452;-55
2021/12/28 01:05:37;;;;;;;7.20;1.83;;;;;;;;;;5035417;28;20059;-56
2021/12/28 01:08:03;;;;;;;2.83;0.90;;;;;;;;;;5034811;28;20071;-55
2021/12/28 01:10:31;;;;;;;3.40;1.35;;;;;;;;;;5035220;28;20032;-54
2021/12/28 01:12:57;;;;;;;1.80;0.90;;;;;;;;;;5035197;28;20022;-54
2021/12/28 01:15:24;;;;;;;3.78;1.75;;;;;;;;;;5034944;28;20041;-56
2021/12/28 01:17:50;;;;;;;3.35;0.82;;;;;;;;;;5034654;28;20029;-52
2021/12/28 01:20:17;;;;;;;6.63;1.55;;;;;;;;;;5035017;28;20030;-53
2021/12/28 01:22:44;;;;;;;5.32;0.80;;;;;;;;;;5034808;28;20452;-54
2021/12/28 01:25:10;;;;;;;6.10;0.60;;;;;;;;;;5034807;28;20029;-54
2021/12/28 01:27:36;;;;;;;8.80;1.52;;;;;;;;;;5034965;28;20044;-52
2021/12/28 01:30:03;;;;;;;2.00;0.90;;;;;;;;;;5034051;28;20068;-55
2021/12/28 01:32:29;;;;;;;1.73;0.93;;;;;;;;;;5035167;28;20029;-52
2021/12/28 01:34:55;;;;;;;4.97;1.45;;;;;;;;;;5035540;28;20450;-53
2021/12/28 01:37:21;;;;;;;3.25;1.30;;;;;;;;;;5034816;28;20383;-51
2021/12/28 01:39:47;;;;;;;2.15;1.23;;;;;;;;;;5034275;28;20029;-55
2021/12/28 01:42:13;;;;;;;4.85;1.40;;;;;;;;;;5034706;28;20029;-54
2021/12/28 01:44:39;;;;;;;2.35;1.67;;;;;;;;;;5039667;28;20390;-54
2021/12/28 01:47:05;;;;;;;1.33;0.82;;;;;;;;;;5054723;28;20119;-52
2021/12/28 01:49:31;;;;;;;6.60;1.38;;;;;;;;;;5054098;28;20059;-55
2021/12/28 01:51:57;;;;;;;5.35;1.55;;;;;;;;;;5054488;28;20028;-54
2021/12/28 01:54:23;;;;;;;3.22;1.35;;;;;;;;;;5054328;28;20033;-50
2021/12/28 01:56:49;;;;;;;4.43;1.38;;;;;;;;;;5054333;28;20028;-54
2021/12/28 01:59:17;;;;;;;2.83;1.17;;;;;;;;;;5053607;28;20492;-52
2021/12/28 02:01:44;;;;;;;1.52;0.82;;;;;;;;;;5048053;28;20486;-51
2021/12/28 02:04:20;;;;;;;2.40;0.93;;;;;;;;;;5034210;28;20036;-52
2021/12/28 02:06:46;;;;;;;5.70;1.67;;;;;;;;;;5034564;28;20033;-51
2021/12/28 02:09:13;;;;;;;5.03;2.00;;;;;;;;;;5033592;28;20533;-55
2021/12/28 02:11:39;;;;;;;2.20;1.08;;;;;;;;;;5033965;28;20091;-51
2021/12/28 02:14:07;;;;;;;5.35;2.08;;;;;;;;;;5034405;28;20033;-51
2021/12/28 02:16:34;;;;;;;5.13;1.83;;;;;;;;;;5034262;28;20029;-53
2021/12/28 02:19:02;;;;;;;2.63;1.25;;;;;;;;;;5033727;28;20436;-55
2021/12/28 02:21:31;;;;;;;1.75;1.02;;;;;;;;;;5033962;28;20025;-49
2021/12/28 02:23:57;;;;;;;3.72;0.95;;;;;;;;;;5033711;28;20164;-55
2021/12/28 02:26:23;;;;;;;3.88;1.20;;;;;;;;;;5034092;28;20037;-51
2021/12/28 02:28:49;;;;;;;4.35;1.27;;;;;;;;;;5033425;28;20029;-52
2021/12/28 02:31:15;;;;;;;3.67;1.40;;;;;;;;;;5033898;28;20052;-55
2021/12/28 02:33:41;;;;;;;6.75;1.73;;;;;;;;;;5033854;28;20432;-52
2021/12/28 02:36:07;;;;;;;3.78;1.52;;;;;;;;;;5033724;28;20140;-53
2021/12/28 02:38:34;;;;;;;2.90;1.17;;;;;;;;;;5033005;28;20025;-52
2021/12/28 02:41:00;;;;;;;2.30;1.17;;;;;;;;;;5033431;28;20529;-54
2021/12/28 02:43:26;;;;;;;4.88;2.05;;;;;;;;;;5033991;28;20036;-52
2021/12/28 02:45:54;;;;;;;2.83;1.00;;;;;;;;;;5048864;28;20059;-52
2021/12/28 02:48:20;;;;;;;2.92;1.63;;;;;;;;;;5052842;28;20021;-50
2021/12/28 02:50:48;;;;;;;4.43;1.88;;;;;;;;;;5053443;28;20028;-52
2021/12/28 02:53:16;;;;;;;2.10;1.05;;;;;;;;;;5053106;28;20059;-54
2021/12/28 02:55:42;;;;;;;3.50;1.42;;;;;;;;;;5053494;28;20051;-52
2021/12/28 02:58:10;;;;;;;4.15;2.17;;;;;;;;;;5052770;28;20111;-49
2021/12/28 03:00:37;;;;;;;15.35;2.40;;;;;;;;;;5053335;28;20025;-52
2021/12/28 03:03:12;;;;;;;4.18;1.38;;;;;;;;;;5049709;28;20087;-53
2021/12/28 03:05:39;;;;;;;2.58;1.20;;;;;;;;;;5053046;28;20056;-52
2021/12/28 03:08:06;;;;;;;6.95;1.75;;;;;;;;;;5052549;28;20033;-51
2021/12/28 03:10:32;;;;;;;5.47;1.73;;;;;;;;;;5052971;28;20036;-55
2021/12/28 03:12:58;;;;;;;4.13;1.35;;;;;;;;;;5052657;28;20051;-51
2021/12/28 03:15:24;;;;;;;12.18;2.17;;;;;;;;;;5052979;28;20021;-54
2021/12/28 03:17:50;;;;;;;3.70;1.42;;;;;;;;;;5052148;28;20061;-55
2021/12/28 03:20:16;;;;;;;5.93;2.05;;;;;;;;;;5052670;28;20021;-56
2021/12/28 03:22:42;;;;;;;4.47;2.08;;;;;;;;;;5052911;28;20029;-53
2021/12/28 03:25:09;;;;;;;7.20;2.00;;;;;;;;;;5052695;28;20033;-54
2021/12/28 03:27:35;;;;;;;6.00;1.33;;;;;;;;;;5052620;28;20474;-55
2021/12/28 03:30:01;;;;;;;2.53;1.95;;;;;;;;;;5052233;28;20112;-56
2021/12/28 03:32:27;;;;;;;5.90;2.00;;;;;;;;;;5052475;28;20028;-50
2021/12/28 03:34:53;;;;;;;9.75;1.83;;;;;;;;;;5052625;28;20040;-54
2021/12/28 03:37:19;;;;;;;3.92;1.58;;;;;;;;;;5052729;28;20100;-53
2021/12/28 03:39:45;;;;;;;3.53;1.15;;;;;;;;;;5051688;28;20386;-55
2021/12/28 03:42:11;;;;;;;5.65;1.52;;;;;;;;;;5052501;28;20107;-56
2021/12/28 03:44:37;;;;;;;4.10;1.48;;;;;;;;;;5047602;28;20030;-56
2021/12/28 03:47:04;;;;;;;6.80;1.70;;;;;;;;;;5032539;28;20156;-53
2021/12/28 03:49:30;;;;;;;6.18;1.35;;;;;;;;;;5032232;28;20033;-51
2021/12/28 03:51:56;;;;;;;3.30;1.33;;;;;;;;;;5032412;28;20029;-55
2021/12/28 03:54:22;;;;;;;3.25;1.20;;;;;;;;;;5032609;28;20387;-56
2021/12/28 03:56:48;;;;;;;5.57;1.27;;;;;;;;;;5032349;28;20025;-54
2021/12/28 03:59:14;;;;;;;10.57;1.77;;;;;;;;;;5031700;28;20029;-53
2021/12/28 04:01:40;;;;;;;4.95;1.70;;;;;;;;;;5035651;28;20475;-56
2021/12/28 04:04:06;;;;;;;4.35;1.38;;;;;;;;;;5031910;28;20052;-56
2021/12/28 04:06:32;;;;;;;5.13;1.50;;;;;;;;;;5032407;28;20033;-56
2021/12/28 04:09:00;;;;;;;3.40;1.40;;;;;;;;;;5031542;28;20041;-56
2021/12/28 04:11:26;;;;;;;2.53;1.30;;;;;;;;;;5032327;28;20033;-56
2021/12/28 04:13:53;;;;;;;5.15;0.98;;;;;;;;;;5031977;28;20064;-53
2021/12/28 04:16:20;;;;;;;5.00;1.08;;;;;;;;;;5032429;28;20482;-53
2021/12/28 04:18:46;;;;;;;2.75;2.50;;;;;;;;;;5031234;28;20030;-51
2021/12/28 04:21:13;;;;;;;6.10;1.63;;;;;;;;;;5032181;28;20100;-54
2021/12/28 04:23:39;;;;;;;2.28;1.02;;;;;;;;;;5031886;28;20037;-53
2021/12/28 04:26:05;;;;;;;6.32;1.40;;;;;;;;;;5033849;28;20034;-53
2021/12/28 04:28:31;;;;;;;5.13;1.20;;;;;;;;;;5035513;28;20177;-54
2021/12/28 04:30:57;;;;;;;3.38;1.20;;;;;;;;;;5029373;28;20072;-54
2021/12/28 04:33:23;;;;;;;9.95;1.92;;;;;;;;;;5035459;28;20087;-51
2021/12/28 04:35:49;;;;;;;1.40;0.70;;;;;;;;;;5036186;28;20072;-55
2021/12/28 04:38:15;;;;;;;1.90;1.00;;;;;;;;;;5035095;28;20029;-54
2021/12/28 04:40:41;;;;;;;5.70;1.75;;;;;;;;;;5035961;28;20024;-51
2021/12/28 04:43:08;;;;;;;4.57;1.48;;;;;;;;;;5035804;28;20029;-56
2021/12/28 04:45:38;;;;;;;3.85;1.00;;;;;;;;;;5046343;28;20462;-56
2021/12/28 04:48:05;;;;;;;10.77;3.45;;;;;;;;;;5054195;28;20506;-53
2021/12/28 04:50:39;;;;;;;5.28;1.30;;;;;;;;;;5055570;28;20078;-51
2021/12/28 04:53:10;;;;;;;6.05;1.10;;;;;;;;;;5054136;28;20021;-53
2021/12/28 04:55:37;;;;;;;3.28;1.33;;;;;;;;;;5055452;28;20410;-53
2021/12/28 04:58:04;;;;;;;4.20;1.33;;;;;;;;;;5055038;28;20024;-53
2021/12/28 05:00:30;;;;;;;4.78;1.80;;;;;;;;;;5055053;28;20374;-56
2021/12/28 05:02:56;;;;;;;3.10;1.23;;;;;;;;;;5055250;28;20036;-56
2021/12/28 05:05:22;;;;;;;2.40;1.00;;;;;;;;;;5055574;28;20029;-54
2021/12/28 05:07:48;;;;;;;3.67;1.65;;;;;;;;;;5054606;28;20044;-55
2021/12/28 05:10:15;;;;;;;6.28;1.23;;;;;;;;;;5055434;28;20459;-55
2021/12/28 05:12:41;;;;;;;5.72;1.30;;;;;;;;;;5055482;28;20033;-56
2021/12/28 05:15:07;;;;;;;5.10;1.48;;;;;;;;;;5054663;28;20040;-55
2021/12/28 05:17:34;;;;;;;4.32;1.02;;;;;;;;;;5055497;28;20079;-55
2021/12/28 05:20:00;;;;;;;3.85;1.27;;;;;;;;;;5054138;28;20026;-54
2021/12/28 05:22:26;;;;;;;2.33;1.27;;;;;;;;;;5054724;28;20458;-54
2021/12/28 05:24:52;;;;;;;2.70;0.95;;;;;;;;;;5054648;28;20044;-55
2021/12/28 05:27:18;;;;;;;3.10;1.27;;;;;;;;;;5055027;28;20037;-56
2021/12/28 05:29:44;;;;;;;3.22;1.35;;;;;;;;;;5053898;28;20125;-53
2021/12/28 05:32:10;;;;;;;3.92;1.55;;;;;;;;;;5055130;28;20036;-52
2021/12/28 05:34:36;;;;;;;2.85;1.13;;;;;;;;;;5054881;28;20036;-53
2021/12/28 05:37:02;;;;;;;3.28;1.35;;;;;;;;;;5054696;28;20025;-52
2021/12/28 05:39:28;;;;;;;3.05;1.80;;;;;;;;;;5054179;28;20025;-53
2021/12/28 05:41:54;;;;;;;2.13;1.20;;;;;;;;;;5054205;28;20359;-51
2021/12/28 05:44:20;;;;;;;3.03;1.58;;;;;;;;;;5054306;28;20043;-55
2021/12/28 05:46:46;;;;;;;2.42;0.93;;;;;;;;;;5054924;28;20029;-55
2021/12/28 05:49:13;;;;;;;2.67;1.13;;;;;;;;;;5054052;28;20375;-56
2021/12/28 05:51:39;;;;;;;1.35;0.82;;;;;;;;;;5054735;28;20446;-52
2021/12/28 05:54:05;;;;;;;5.30;1.75;;;;;;;;;;5054210;28;20033;-51
2021/12/28 05:56:31;;;;;;;2.95;1.15;;;;;;;;;;5052192;28;20028;-54
2021/12/28 05:58:57;;;;;;;4.13;1.17;;;;;;;;;;5053865;28;20090;-54
2021/12/28 06:01:23;;;;;;;3.13;1.33;;;;;;;;;;5051439;28;20048;-53
2021/12/28 06:03:49;;;;;;;2.78;1.60;;;;;;;;;;5034400;28;20463;-53
2021/12/28 06:06:15;;;;;;;4.95;1.45;;;;;;;;;;5034910;28;20067;-54
2021/12/28 06:08:41;;;;;;;4.88;1.48;;;;;;;;;;5036075;28;20116;-55
2021/12/28 06:11:11;;;;;;;3.38;1.45;;;;;;;;;;5054582;28;20083;-55
2021/12/28 06:13:37;;;;;;;;;;;;;;;;;;5054615;28;20036;-55
2021/12/28 06:16:03;;;;;;;2.42;1.35;;;;;;;;;;5054267;28;19909;-54
2021/12/28 06:18:29;;;;;;;3.08;1.42;;;;;;;;;;5053514;28;20470;-49
2021/12/28 06:20:55;;;;;;;1.65;1.02;;;;;;;;;;5054045;28;20079;-51
2021/12/28 06:23:21;;;;;;;2.20;1.48;;;;;;;;;;5053255;28;20029;-51
2021/12/28 06:25:47;;;;;;;4.10;1.50;;;;;;;;;;5053822;28;20040;-50
2021/12/28 06:28:14;;;;;;;1.80;1.10;;;;;;;;;;5053329;28;20500;-52
2021/12/28 06:30:40;;;;;;;2.63;1.20;;;;;;;;;;5053969;28;20406;-54
2021/12/28 06:33:06;;;;;;;1.95;0.90;;;;;;;;;;5053887;28;20025;-55
2021/12/28 06:35:32;;;;;;;2.50;1.20;;;;;;;;;;5054011;28;20040;-56
2021/12/28 06:37:58;;;;;;;2.13;1.20;;;;;;;;;;5052911;28;20402;-56
2021/12/28 06:40:25;;;;;;;3.30;1.27;;;;;;;;;;5053454;28;20047;-55
2021/12/28 06:42:51;;;;;;;1.30;0.70;;;;;;;;;;5053375;28;20387;-56
2021/12/28 06:45:17;;;;;;;1.63;0.88;;;;;;;;;;5053432;28;20029;-55
2021/12/28 06:47:43;;;;;;;2.40;1.02;;;;;;;;;;5053124;28;20068;-54
2021/12/28 06:50:09;;;;;;;1.80;0.70;;;;;;;;;;5053140;28;20029;-54
2021/12/28 06:52:35;;;;;;;1.73;0.90;;;;;;;;;;5052934;28;20082;-51
2021/12/28 06:55:02;;;;;;;1.73;0.82;;;;;;;;;;5053211;28;20037;-55
2021/12/28 06:57:27;;;;;;;3.70;1.15;;;;;;;;;;5053260;28;20025;-52
2021/12/28 06:59:53;;;;;;;2.00;0.80;;;;;;;;;;5052880;28;20032;-53
2021/12/28 07:02:19;;;;;;;1.98;0.77;;;;;;;;;;5052798;28;20024;-52
2021/12/28 07:04:46;;;;;;;1.67;0.63;;;;;;;;;;5053079;28;20037;-56
2021/12/28 07:07:12;;;;;;;1.77;0.80;;;;;;;;;;5053259;28;20039;-56
2021/12/28 07:09:38;;;;;;;1.30;0.50;;;;;;;;;;5052579;28;20108;-56
2021/12/28 07:12:05;;;;;;;1.10;0.52;;;;;;;;;;5053282;28;20388;-52
2021/12/28 07:14:31;;;;;;;1.70;1.00;;;;;;;;;;5052873;28;20126;-55
2021/12/28 07:16:57;;;;;;;1.23;0.90;;;;;;;;;;5052535;28;20025;-56
2021/12/28 07:19:24;;;;;;;0.75;0.30;;;;;;;;;;5052301;28;20040;-55
2021/12/28 07:21:50;;;;;;;0.93;0.47;;;;;;;;;;5052807;28;20029;-55
2021/12/28 07:24:16;;;;;;;2.88;0.90;;;;;;;;;;5052386;28;20044;-53
2021/12/28 07:26:42;;;;;;;1.33;0.57;;;;;;;;;;5053098;28;20060;-55
2021/12/28 07:29:08;;;;;;;0.65;0.30;;;;;;;;;;5052151;28;20187;-54
2021/12/28 07:31:34;;;;;;;0.57;0.28;;;;;;;;;;5052094;28;20055;-54
2021/12/28 07:34:00;;;;;;;1.00;0.50;;;;;;;;;;5052241;28;20541;-53
2021/12/28 07:36:26;;;;;;;0.90;0.30;;;;;;;;;;5051178;28;20422;-56
2021/12/28 07:38:52;;;;;;;1.73;1.00;;;;;;;;;;5051627;28;20060;-54
2021/12/28 07:41:18;;;;;;;1.17;0.40;;;;;;;;;;5052697;28;20115;-55
2021/12/28 07:43:44;;;;;;;0.20;0.17;;;;;;;;;;5052283;28;20047;-54
2021/12/28 07:46:10;;;;;;;1.02;0.43;;;;;;;;;;5052584;28;20524;-54
2021/12/28 07:48:36;;;;;;;0.50;0.22;;;;;;;;;;5051941;28;20025;-52
2021/12/28 07:51:02;;;;;;;0.52;0.22;;;;;;;;;;5052156;28;20108;-55
2021/12/28 07:53:28;;;;;;;0.80;0.30;;;;;;;;;;5052447;28;20025;-52
2021/12/28 07:55:56;;;;;;;0.30;0.15;;;;;;;;;;5051788;28;20032;-51
2021/12/28 07:58:22;;;;;;;0.80;0.30;;;;;;;;;;5051731;28;20513;-56
2021/12/28 08:00:48;;;;;;;1.08;0.40;;;;;;;;;;5052040;28;20032;-49
2021/12/28 08:03:13;;;;;;;1.00;0.43;;;;;;;;;;5052136;28;20024;-51
2021/12/28 08:05:39;;;;;;;0.70;0.30;;;;;;;;;;5052401;28;20055;-53
2021/12/28 08:08:06;;;;;;;1.33;0.38;;;;;;;;;;5051218;28;20068;-53
2021/12/28 08:10:32;;;;;;;0.73;0.30;;;;;;;;;;5052077;28;20048;-51
2021/12/28 08:12:58;;;;;;;0.30;0.20;;;;;;;;;;5052193;28;20067;-51
2021/12/28 08:15:24;;;;;;;0.22;0.10;;;;;;;;;;5051666;28;20029;-53
2021/12/28 08:17:51;;;;;;;0.63;0.28;;;;;;;;;;5051327;28;20398;-53
2021/12/28 08:20:17;;;;;;;0.22;0.17;;;;;;;;;;5052194;28;20083;-52
2021/12/28 08:22:44;;;;;;;1.27;0.30;;;;;;;;;;5051195;28;20053;-52
2021/12/28 08:25:11;;;;;;;0.65;0.20;;;;;;;;;;5052104;28;20029;-49
2021/12/28 08:27:38;;;;;;;0.25;0.08;;;;;;;;;;5052045;28;20389;-52
2021/12/28 08:30:05;;;;;;;0.35;0.20;;;;;;;;;;5051266;28;20043;-53
2021/12/28 08:32:31;;;;;;;0.32;0.20;;;;;;;;;;5052070;28;20029;-53
2021/12/28 08:34:57;;;;;;;0.55;0.30;;;;;;;;;;5051565;28;20381;-53
2021/12/28 08:37:23;;;;;;;0.30;0.17;;;;;;;;;;5052093;28;20103;-51
2021/12/28 08:39:49;;;;;;;0.17;0.10;;;;;;;;;;5051260;28;20082;-51
2021/12/28 08:42:17;;;;;;;0.70;0.20;;;;;;;;;;5051944;28;20464;-54
2021/12/28 08:44:43;;;;;;;0.05;0.03;;;;;;;;;;5051762;28;20044;-55
2021/12/28 08:47:09;;;;;;;0.98;0.20;;;;;;;;;;5051535;28;20029;-51
2021/12/28 08:49:35;;;;;;;0.10;0.10;;;;;;;;;;5050732;28;20358;-54
2021/12/28 08:52:01;;;;;;;0.10;0.10;;;;;;;;;;5051495;28;20025;-52
2021/12/28 08:54:27;;;;;;;0.10;0.10;;;;;;;;;;5051891;28;20033;-53
2021/12/28 08:56:53;;;;;;;0.60;0.20;;;;;;;;;;5051658;28;20032;-54
2021/12/28 08:59:19;;;;;;;0.50;0.20;;;;;;;;;;5051407;28;20029;-51
2021/12/28 09:01:47;;;;;;;0.30;0.20;;;;;;;;;;5045341;28;20029;-56
2021/12/28 09:04:13;;;;;;;0.30;0.20;;;;;;;;;;5049417;28;20021;-55
2021/12/28 09:06:39;;;;;;;0.25;0.15;;;;;;;;;;5048068;28;20033;-55
2021/12/28 09:09:05;;;;;;;0.77;0.30;;;;;;;;;;5046944;28;20116;-52
2021/12/28 09:11:31;;;;;;;0.57;0.38;;;;;;;;;;5051518;28;20100;-51
2021/12/28 09:13:57;;;;;;;0.82;0.30;;;;;;;;;;5053953;28;20429;-53
2021/12/28 09:16:23;;;;;;;0.77;0.32;;;;;;;;;;5048088;28;20442;-56
2021/12/28 09:18:49;;;;;;;0.40;0.20;;;;;;;;;;5053506;28;20032;-54
2021/12/28 09:21:15;;;;;;;0.52;0.17;;;;;;;;;;5057934;28;20055;-53
2021/12/28 09:23:41;;;;;;;0.30;0.13;;;;;;;;;;5053116;28;20033;-51
2021/12/28 09:26:07;;;;;;;2.22;0.55;;;;;;;;;;5054241;28;20025;-52
2021/12/28 09:28:33;;;;;;;1.38;0.65;;;;;;;;;;5057777;28;20091;-54
2021/12/28 09:30:59;;;;;;;0.77;0.32;;;;;;;;;;5055147;28;20108;-54
2021/12/28 09:33:25;;;;;;;2.97;0.50;;;;;;;;;;5040812;28;20109;-55
2021/12/28 09:35:52;;;;;;;0.75;0.32;;;;;;;;;;5044913;28;20051;-53
2021/12/28 09:38:19;;;;;;;0.47;0.22;;;;;;;;;;5044387;28;20028;-53
2021/12/28 09:40:46;;;;;;;0.77;0.20;;;;;;;;;;5051864;28;20033;-51
2021/12/28 09:43:13;;;;;;;0.13;0.10;;;;;;;;;;5054295;28;20367;-55
2021/12/28 09:45:39;;;;;;;0.82;0.20;;;;;;;;;;5054144;28;20029;-55
2021/12/28 09:48:06;;;;;;;0.10;0.10;;;;;;;;;;5052854;28;20029;-54
2021/12/28 09:50:32;;;;;;;1.00;0.30;;;;;;;;;;5054532;28;20025;-54
2021/12/28 09:53:00;;;;;;;0.57;0.20;;;;;;;;;;5054080;28;20029;-56
2021/12/28 09:55:26;;;;;;;0.10;0.08;;;;;;;;;;5048112;28;20040;-56
2021/12/28 09:57:52;;;;;;;0.13;0.03;;;;;;;;;;5053294;28;20430;-54
2021/12/28 10:00:19;;;;;;;0.50;0.20;;;;;;;;;;5053210;28;20226;-55
2021/12/28 10:02:45;;;;;;;0.43;0.30;;;;;;;;;;5053609;28;20025;-56
2021/12/28 10:05:14;;;;;;;0.88;0.20;;;;;;;;;;5053724;28;20040;-56
2021/12/28 10:07:44;;;;;;;0.28;0.13;;;;;;;;;;5054333;28;20036;-54
2021/12/28 10:10:11;;;;;;;0.30;0.10;;;;;;;;;;5053400;28;20079;-54
2021/12/28 10:12:39;;;;;;;1.08;0.22;;;;;;;;;;5053765;28;20045;-56
2021/12/28 10:15:08;;;;;;;0.20;0.10;;;;;;;;;;5053389;28;20029;-56
2021/12/28 10:17:35;;;;;;;0.60;0.30;;;;;;;;;;5053678;28;20029;-53
2021/12/28 10:20:04;;;;;;;3.50;0.35;;;;;;;;;;5052940;28;20358;-55
2021/12/28 10:22:32;;;;;;;4.00;0.45;;;;;;;;;;5052616;28;20013;-54
2021/12/28 10:25:05;;;;;;;0.32;0.20;;;;;;;;;;5043372;28;20021;-56
2021/12/28 10:27:32;;;;;;;0.22;0.10;;;;;;;;;;5048043;28;20543;-56
2021/12/28 10:30:04;;;;;;;0.15;0.10;;;;;;;;;;5052865;28;20021;-56
2021/12/28 10:32:30;;;;;;;1.98;0.55;;;;;;;;;;5053259;28;20025;-54
2021/12/28 10:34:57;;;;;;;0.43;0.17;;;;;;;;;;5053445;28;20410;-56
2021/12/28 10:37:24;;;;;;;0.43;0.17;;;;;;;;;;5052899;28;20037;-54
2021/12/28 10:39:51;;;;;;;0.20;0.10;;;;;;;;;;5052428;28;20029;-51
2021/12/28 10:42:37;;;;;;;0.38;0.17;;;;;;;;;;5043680;28;20147;-54
2021/12/28 10:45:04;;;;;;;0.77;0.20;;;;;;;;;;5052737;28;20234;-53
2021/12/28 10:47:31;;;;;;;0.40;0.20;;;;;;;;;;5046106;28;20128;-56
2021/12/28 10:50:00;;;;;;;0.30;0.20;;;;;;;;;;5048608;28;20100;-54
2021/12/28 10:52:37;;;;;;;0.65;0.20;;;;;;;;;;5050173;28;20446;-56
2021/12/28 10:55:21;;;;;;;0.85;0.30;;;;;;;;;;5046745;28;20037;-56
2021/12/28 10:57:47;;;;;;;0.70;0.30;;;;;;;;;;5044511;28;20683;-54
2021/12/28 11:00:33;;;;;;;4.18;0.25;;;;;;;;;;5046514;28;20486;-52
2021/12/28 11:03:14;;;;;;;0.60;0.30;;;;;;;;;;5048630;28;20088;-56
2021/12/28 11:05:41;;;;;;;0.40;0.20;;;;;;;;;;5040392;28;20033;-56
2021/12/28 11:08:08;;;;;;;0.57;0.20;;;;;;;;;;5050648;28;20505;-56
2021/12/28 11:10:34;;;;;;;0.20;0.10;;;;;;;;;;5045384;28;20135;-56
2021/12/28 11:13:00;;;;;;;0.15;0.15;;;;;;;;;;5051635;28;20036;-56
2021/12/28 11:15:27;;;;;;;3.10;2.10;;;;;;;;;;5047387;28;20029;-56
2021/12/28 11:17:53;;;;;;;0.50;0.30;;;;;;;;;;5051247;28;20474;-56
2021/12/28 11:20:32;;;;;;;1.15;0.47;;;;;;;;;;5051549;28;20044;-53
2021/12/28 11:23:11;;;;;;;0.40;0.20;;;;;;;;;;5046937;28;20070;-55
2021/12/28 11:25:37;;;;;;;0.32;0.10;;;;;;;;;;5049329;28;20208;-56
2021/12/28 11:28:20;;;;;;;0.30;0.10;;;;;;;;;;5049011;28;20122;-56
2021/12/28 11:31:16;;;;;;;0.52;0.20;;;;;;;;;;5050704;28;20028;-56
2021/12/28 11:33:50;;;;;;;0.45;0.20;;;;;;;;;;5050284;28;20124;-53
2021/12/28 11:36:17;;;;;;;0.47;0.25;;;;;;;;;;5050420;28;20025;-53
2021/12/28 11:38:44;;;;;;;0.57;0.20;;;;;;;;;;5044962;28;20029;-55
2021/12/28 11:41:10;;;;;;;0.80;0.30;;;;;;;;;;5048206;28;20443;-55
2021/12/28 11:43:37;;;;;;;0.88;0.50;;;;;;;;;;5051408;28;20112;-56
2021/12/28 11:46:04;;;;;;;1.75;0.70;;;;;;;;;;5049486;28;20029;-56
2021/12/28 11:48:30;;;;;;;0.77;0.40;;;;;;;;;;5050373;28;20039;-56
2021/12/28 11:50:57;;;;;;;0.88;0.30;;;;;;;;;;5051283;28;20390;-56
2021/12/28 11:53:24;;;;;;;0.60;0.30;;;;;;;;;;5051340;28;20029;-56
2021/12/28 11:55:50;;;;;;;0.80;0.45;;;;;;;;;;5052130;28;20029;-56
2021/12/28 11:58:15;;;;;;;0.17;0.10;;;;;;;;;;5045875;28;20038;-56
2021/12/28 12:00:43;;;;;;;0.90;0.40;;;;;;;;;;5044065;28;20036;-56
2021/12/28 12:03:29;;;;;;;0.50;0.20;;;;;;;;;;5051040;28;20398;-53
2021/12/28 12:05:55;;;;;;;1.20;0.45;;;;;;;;;;5049114;28;20033;-54
2021/12/28 12:08:21;;;;;;;0.68;0.32;;;;;;;;;;5049907;28;20041;-54
2021/12/28 12:10:49;;;;;;;0.50;0.30;;;;;;;;;;5049932;28;20029;-53
2021/12/28 12:13:20;;;;;;;0.25;0.10;;;;;;;;;;5047968;28;20044;-54
2021/12/28 12:15:46;;;;;;;;;;;;;;;;;;5046663;28;20112;-52
2021/12/28 12:18:13;;;;;;;0.73;0.30;;;;;;;;;;5050664;28;20005;-55
2021/12/28 12:20:44;;;;;;;0.32;0.13;;;;;;;;;;5051707;28;20032;-51
2021/12/28 12:23:12;;;;;;;;;;;;;;;;;;5044132;28;20033;-52
2021/12/28 12:25:49;;;;;;;0.15;0.10;;;;;;;;;;5051469;28;19920;-56
2021/12/28 12:28:15;;;;;;;1.00;0.43;;;;;;;;;;5050441;28;20039;-55
2021/12/28 12:30:44;;;;;;;0.17;0.10;;;;;;;;;;5051394;28;20112;-56
2021/12/28 12:33:11;;;;;;;0.68;0.25;;;;;;;;;;5048820;28;20386;-57
2021/12/28 12:35:47;;;;;;;0.45;0.15;;;;;;;;;;5051592;28;20033;-56
2021/12/28 12:38:13;;;;;;;0.47;0.22;;;;;;;;;;5050024;28;20028;-56
2021/12/28 12:40:54;;;;;;;0.88;0.22;;;;;;;;;;5050169;28;20029;-56
2021/12/28 12:43:20;;;;;;;0.45;0.20;;;;;;;;;;5050835;28;20458;-56
2021/12/28 12:45:52;;;;;;;3.13;0.75;;;;;;;;;;5050907;28;20033;-57
2021/12/28 12:48:32;;;;;;;0.90;0.40;;;;;;;;;;5054450;28;20029;-57
2021/12/28 12:51:16;;;;;;;0.63;0.30;;;;;;;;;;5055284;28;20040;-55
2021/12/28 12:53:45;;;;;;;0.43;0.20;;;;;;;;;;5055064;28;20094;-57
2021/12/28 12:56:12;;;;;;;0.65;0.40;;;;;;;;;;5035525;28;20033;-57
2021/12/28 12:58:38;;;;;;;2.03;0.35;;;;;;;;;;5034949;28;20037;-57
2021/12/28 13:01:04;;;;;;;0.80;0.30;;;;;;;;;;5038957;28;20052;-56
2021/12/28 13:03:33;;;;;;;1.10;0.40;;;;;;;;;;5035166;28;20523;-55
2021/12/28 13:06:00;;;;;;;1.02;0.40;;;;;;;;;;5042972;28;20108;-57
2021/12/28 13:08:26;;;;;;;0.20;0.10;;;;;;;;;;5054422;28;20048;-56
2021/12/28 13:10:52;;;;;;;0.85;0.50;;;;;;;;;;5055696;28;20104;-55
2021/12/28 13:13:18;;;;;;;1.02;0.47;;;;;;;;;;5055073;28;20028;-55
2021/12/28 13:15:44;;;;;;;0.75;0.30;;;;;;;;;;5054751;28;20044;-57
2021/12/28 13:18:10;;;;;;;0.40;0.20;;;;;;;;;;5054398;28;20029;-57
2021/12/28 13:20:36;;;;;;;0.52;0.20;;;;;;;;;;5054556;28;20513;-57
2021/12/28 13:23:07;;;;;;;0.55;0.25;;;;;;;;;;5054734;28;20495;-55
2021/12/28 13:25:33;;;;;;;;;;;;;;;;;;5055158;28;20037;-57
2021/12/28 13:28:01;;;;;;;0.80;0.30;;;;;;;;;;5054503;28;19909;-54
2021/12/28 13:30:30;;;;;;;2.42;0.68;;;;;;;;;;5054796;28;20028;-55
2021/12/28 13:32:57;;;;;;;0.88;0.32;;;;;;;;;;5054565;28;20037;-56
2021/12/28 13:35:27;;;;;;;0.10;0.00;;;;;;;;;;5054100;28;20359;-56
2021/12/28 13:37:57;;;;;;;1.10;0.35;;;;;;;;;;5053847;28;20504;-57
2021/12/28 13:40:41;;;;;;;0.95;0.40;;;;;;;;;;5054774;28;20025;-57
2021/12/28 13:43:07;;;;;;;0.88;0.30;;;;;;;;;;5054313;28;20029;-56
2021/12/28 13:45:35;;;;;;;0.52;0.40;;;;;;;;;;5054096;28;20039;-55
2021/12/28 13:48:03;;;;;;;2.50;0.40;;;;;;;;;;5054046;28;20029;-54
2021/12/28 13:50:30;;;;;;;1.73;0.60;;;;;;;;;;5054384;28;20075;-56
2021/12/28 13:52:57;;;;;;;4.88;0.52;;;;;;;;;;5054227;28;20482;-57
2021/12/28 13:55:30;;;;;;;2.33;0.75;;;;;;;;;;5054268;28;20446;-57
2021/12/28 13:57:57;;;;;;;3.50;0.30;;;;;;;;;;5053498;28;20020;-55
2021/12/28 14:00:25;;;;;;;2.15;0.52;;;;;;;;;;5054483;28;20035;-57
2021/12/28 14:03:09;;;;;;;2.75;0.88;;;;;;;;;;5039551;28;20017;-55
2021/12/28 14:05:35;;;;;;;2.03;0.52;;;;;;;;;;5052527;28;20036;-57
2021/12/28 14:08:02;;;;;;;0.50;0.22;;;;;;;;;;5053572;28;20029;-57
2021/12/28 14:10:33;;;;;;;0.73;0.32;;;;;;;;;;5053968;28;20112;-56
2021/12/28 14:13:01;;;;;;;1.25;0.60;;;;;;;;;;5054425;28;20029;-56
2021/12/28 14:15:28;;;;;;;1.20;0.30;;;;;;;;;;5054146;28;20033;-54
2021/12/28 14:17:53;;;;;;;1.35;0.50;;;;;;;;;;5053191;28;20021;-55
2021/12/28 14:20:26;;;;;;;1.88;0.60;;;;;;;;;;5054000;28;20033;-57
2021/12/28 14:22:52;;;;;;;0.60;0.20;;;;;;;;;;5053516;28;20336;-56
2021/12/28 14:25:19;;;;;;;1.85;0.60;;;;;;;;;;5053677;28;20029;-56
2021/12/28 14:27:54;;;;;;;1.08;0.30;;;;;;;;;;5053538;28;20485;-56
2021/12/28 14:30:21;;;;;;;0.70;0.40;;;;;;;;;;5053873;28;20053;-57
2021/12/28 14:32:49;;;;;;;1.45;0.40;;;;;;;;;;5053479;28;20592;-56
2021/12/28 14:35:17;;;;;;;0.82;0.40;;;;;;;;;;5053858;28;20033;-56
2021/12/28 14:37:44;;;;;;;0.75;0.35;;;;;;;;;;5053308;28;20462;-56
2021/12/28 14:40:16;;;;;;;0.50;0.30;;;;;;;;;;5053283;28;20017;-56
2021/12/28 14:42:42;;;;;;;2.10;0.50;;;;;;;;;;5053640;28;20032;-55
2021/12/28 14:45:10;;;;;;;1.15;0.47;;;;;;;;;;5053479;28;20054;-53
2021/12/28 14:47:36;;;;;;;1.02;0.45;;;;;;;;;;5053022;28;20117;-56